WetterOnline ( https://www.wetteronline.de )

Wetter aktuell Wiesloch

Aktuelles Wetter: Waibstadt (237m)

6-stündlich | Neueste Meldungen
Ortszeit Temperatur Wetter
Di, 24.05. 8:00 15.5° C wolkig
Di, 24.05. 2:00 16.0° C Sprühregen
Mo, 23.05. 20:00 20.8° C wolkig
Mo, 23.05. 14:00 19.6° C leichter Regen
Mo, 23.05. 8:00 13.0° C leichter Regen
Mo, 23.05. 2:00 16.3° C leicht bewölkt
So, 22.05. 20:00 21.2° C bewölkt
So, 22.05. 14:00 22.5° C wolkenlos
Ortszeit Temperatur Wetter
Di, 24.05. 8:30 16.4° C bewölkt
Di, 24.05. 8:20 16.4° C bewölkt
Di, 24.05. 8:10 17.0° C wolkig
Di, 24.05. 8:00 15.5° C wolkig
Di, 24.05. 7:50 15.5° C wolkig
Di, 24.05. 7:40 15.7° C bewölkt
Di, 24.05. 7:30 15.0° C wolkig
Di, 24.05. 7:00 14.8° C bewölkt
Di, 24.05. 6:30 14.5° C wolkig
Di, 24.05. 6:00 14.6° C bedeckt
Di, 24.05. 5:30 14.8° C bewölkt
Ortszeit Relative Feuchte Sichtweite
Di, 24.05. 8:00 84% 55 km
Di, 24.05. 2:00 87% 14 km
Mo, 23.05. 20:00 68% 55 km
Mo, 23.05. 14:00 77% 27 km
Mo, 23.05. 8:00 94% 9 km
Mo, 23.05. 2:00 70% 55 km
So, 22.05. 20:00 51% 55 km
So, 22.05. 14:00 37% 45 km
Ortszeit Relative Feuchte Sichtweite
Di, 24.05. 8:30 79% 60 km
Di, 24.05. 8:20 79% -
Di, 24.05. 8:10 77% -
Di, 24.05. 8:00 84% 55 km
Di, 24.05. 7:50 84% -
Di, 24.05. 7:40 84% -
Di, 24.05. 7:30 86% 50 km
Di, 24.05. 7:00 87% 45 km
Di, 24.05. 6:30 88% 45 km
Di, 24.05. 6:00 87% 45 km
Di, 24.05. 5:30 91% 30 km
Ortszeit Niederschlagsmenge Niederschlagsart
Di, 24.05. 8:00 0.1 l/m2 in 12 Std. Regen
Di, 24.05. 2:00 0.1 l/m2 in 6 Std. Regen
Mo, 23.05. 20:00 0.1 l/m2 in 12 Std. Regen
Mo, 23.05. 14:00 0.1 l/m2 in 6 Std. Regen
Mo, 23.05. 8:00 3 l/m2 in 12 Std. Regen
Mo, 23.05. 2:00 0.2 l/m2 in 6 Std. Regen
So, 22.05. 20:00 0.0 l/m2 in 12 Std. -
So, 22.05. 14:00 0.0 l/m2 in 6 Std. -
Ortszeit Niederschlagsmenge Niederschlagsart
Di, 24.05. 8:30 0.0 l/m2 in 1 Std. -
Di, 24.05. 8:20 keine Meldung -
Di, 24.05. 8:10 keine Meldung -
Di, 24.05. 8:00 0.0 l/m2 in 1 Std. Regen
Di, 24.05. 7:50 keine Meldung -
Di, 24.05. 7:40 keine Meldung -
Di, 24.05. 7:30 0.0 l/m2 in 1 Std. -
Di, 24.05. 7:00 0.0 l/m2 in 1 Std. -
Di, 24.05. 6:30 0.0 l/m2 in 1 Std. -
Di, 24.05. 6:00 0.0 l/m2 in 1 Std. -
Di, 24.05. 5:30 0.0 l/m2 in 1 Std. -
Ortszeit Stärke Spitze Richtung
km/h Bft. km/h Grad Sektor
Di, 24.05. 8:00 11 2 25 220° SW
Di, 24.05. 2:00 15 3 72 270° W
Mo, 23.05. 20:00 13 3 31 190° S
Mo, 23.05. 14:00 14 3 32 140° SO
Mo, 23.05. 8:00 19 3 30 100° O
Mo, 23.05. 2:00 9 2 20 80° O
So, 22.05. 20:00 6 1 20 70° O
So, 22.05. 14:00 6 1 17 10° N
Ortszeit Stärke Spitze Richtung
km/h Bft. km/h Grad Sektor
Di, 24.05. 8:30 11 2 22 250° W
Di, 24.05. 8:20 11 2 - 250° W
Di, 24.05. 8:10 13 3 - 240° SW
Di, 24.05. 8:00 11 2 25 220° SW
Di, 24.05. 7:50 11 2 - 220° SW
Di, 24.05. 7:40 11 2 - 220° SW
Di, 24.05. 7:30 11 2 19 230° SW
Di, 24.05. 7:00 9 2 22 240° SW
Di, 24.05. 6:30 11 2 22 240° SW
Di, 24.05. 6:00 15 3 24 250° W
Di, 24.05. 5:30 14 3 22 240° SW
Ortszeit Untergrenze Bedeckung Gattung
total tief tief mittel hoch
Di, 24.05. 8:00 2400 m 7/8 1/8 - - -
Di, 24.05. 2:00 1500 m 8/8 8/8 - - -
Mo, 23.05. 20:00 2100 m 8/8 3/8 - - -
Mo, 23.05. 14:00 3000 m 7/8 7/8 - - -
Mo, 23.05. 8:00 2100 m 7/8 1/8 - - -
Mo, 23.05. 2:00 3900 m 4/8 1/8 - - -
So, 22.05. 20:00 2700 m 8/8 6/8 - - -
So, 22.05. 14:00 - 0/8 0/8 - - -
Ortszeit Bedeckungsgrad in Achtel und Wolkenuntergrenze
Di, 24.05. 8:30 2(870m) 6(1500m) 7(2400m)
Di, 24.05. 8:20 2(870m) 6(1500m) 7(2400m)
Di, 24.05. 8:10 6
Di, 24.05. 8:00 1(2400m) 6(6600m) 7(8700m)
Di, 24.05. 7:50 1(2400m) 6(6600m) 7(8700m)
Di, 24.05. 7:40 7
Di, 24.05. 7:30 2(1800m) 7(6600m) 7(7800m)
Di, 24.05. 7:00 7(2400m) 8(5100m)
Di, 24.05. 6:30 1(1500m) 8(5100m)
Di, 24.05. 6:00 8(5100m)
Di, 24.05. 5:30 3(360m) 5(1140m) 8(5400m)
Ortszeit Luftdruck NN (hPa) Tendenz (hPa in 3 Std.)
Di, 24.05. 8:00 1006 + 0,9
Di, 24.05. 2:00 1005 + 1,6
Mo, 23.05. 20:00 1000 - 1,3
Mo, 23.05. 14:00 1004 - 0,7
Mo, 23.05. 8:00 1006 - 1,1
Mo, 23.05. 2:00 1009 - 2,3
So, 22.05. 20:00 1011 - 1,9
So, 22.05. 14:00 1014 - 1,5
Ortszeit Luftdruck NN (hPa) Tendenz (hPa in 3 Std.)
Di, 24.05. 8:30 1006 + 1,0
Di, 24.05. 8:20 1006 keine Meldung
Di, 24.05. 8:10 1006 keine Meldung
Di, 24.05. 8:00 1006 + 0,9
Di, 24.05. 7:50 1006 keine Meldung
Di, 24.05. 7:40 1006 keine Meldung
Di, 24.05. 7:30 1006 + 0,8
Di, 24.05. 7:00 1006 + 0,4
Di, 24.05. 6:30 1005 - 0,1
Di, 24.05. 6:00 1005 - 0,1
Di, 24.05. 5:30 1005 - 0,5
Ortszeit Schneehöhe (cm)
Di, 24.05. 8:00 0
Di, 24.05. 2:00 0
Mo, 23.05. 20:00 0
Mo, 23.05. 14:00 0
Mo, 23.05. 8:00 0
Mo, 23.05. 2:00 0
So, 22.05. 20:00 0
So, 22.05. 14:00 0
Ortszeit Schneehöhe (cm)
Di, 24.05. 8:30 0
Di, 24.05. 8:20 0
Di, 24.05. 8:10 0
Di, 24.05. 8:00 0
Di, 24.05. 7:50 0
Di, 24.05. 7:40 0
Di, 24.05. 7:30 0
Di, 24.05. 7:00 0
Di, 24.05. 6:30 0
Di, 24.05. 6:00 0
Di, 24.05. 5:30 0
Link zu dieser Seite / Seite empfehlen

Das Wetter in ...